• Join FlightAware (Why Join?)
  • Login
  • US Flag 
11:40PM EDT


 

Airport Tracker/Info


-or-


 

Live Flight TrackerFlight Track Log ✈ AMF1695 ✈ 20-Sep-2013 ✈ KGRI - KOMA

Flight Track Log - Related Links

Times and Time Zones

All times are in EDT time to prevent confusion due to time zone crossing. See the AMF1695 flight status page for this flight to view local times or setup timezone preferences in your user account.

Time Position Orientation Groundspeed Altitude Reporting Facility
EDT Latitude Longitude Course Direction KTS MPH feet Rate Location/Type
09:03PM 40.9892 -98.1711 60° Northeast 165 190 6,300  Level Minneapolis Center
09:04PM 41.0050 -98.1047 72° East 184 212 7,500 1,260 Climbing Minneapolis Center
09:05PM 41.0161 -98.0350 78° East 193 222 9,000 720 Climbing Minneapolis Center
09:06PM 41.0258 -97.9614 80° East 199 229 9,100  Climbing Minneapolis Center
09:07PM 41.0336 -97.8819 83° East 213 245 9,100 -60 Level Minneapolis Center
09:08PM 41.0419 -97.8044 82° East 214 246 9,000  Descending Minneapolis Center
09:09PM 41.0536 -97.7144 80° East 208 239 9,100  Climbing Minneapolis Center
09:10PM 41.0642 -97.6406 79° East 205 236 9,000  Descending Minneapolis Center
09:11PM 41.0472 -97.6189 136° Southeast 204 235 9,100 180 Climbing Minneapolis Center
09:11PM 41.0483 -97.5994 86° East 206 237 9,100  Level Minneapolis Center
09:11PM 41.0731 -97.5642 47° Northeast 207 238 9,100  Level Minneapolis Center
09:12PM 41.0569 -97.5242 118° Southeast 212 244 9,100 60 Level Minneapolis Center
09:12PM 41.0808 -97.4875 49° Northeast 210 242 9,200  Climbing Minneapolis Center
09:13PM 41.0656 -97.4489 118° Southeast 212 244 9,100 -240 Descending Minneapolis Center
09:14PM 41.0892 -97.4092 52° Northeast 213 245 9,000 -120 Descending Minneapolis Center
09:14PM 41.0739 -97.3681 116° Southeast 217 250 9,000 -120 Level Minneapolis Center
09:15PM 41.0969 -97.3189 58° Northeast 216 249 8,900 -120 Descending Minneapolis Center
09:15PM 41.0819 -97.2844 120° Southeast 219 252 8,900  Level Minneapolis Center
09:16PM 41.1058 -97.2400 54° Northeast 217 250 8,900 60 Level Minneapolis Center
09:16PM 41.0944 -97.2086 116° Southeast 214 246 9,000 60 Climbing Minneapolis Center
09:17PM 41.1194 -97.1656 52° Northeast 211 243 9,000 60 Level Minneapolis Center
09:17PM 41.1067 -97.1303 116° Southeast 208 239 9,100 60 Climbing Minneapolis Center
09:18PM 41.1239 -97.0886 61° Northeast 209 241 9,100  Level Minneapolis Center
09:18PM 41.1067 -97.0528 123° Southeast 216 249 9,100  Level Minneapolis Center
09:19PM 41.1189 -97.0089 70° East 214 246 9,100  Level Minneapolis Center
09:19PM 41.1019 -96.9703 120° Southeast 220 253 9,100  Level Minneapolis Center
09:20PM 41.1017 -96.8903 90° East 217 250 9,100 -60 Level Minneapolis Center
09:21PM 41.1033 -96.8128 88° East 214 246 9,000 -240 Descending Minneapolis Center
09:22PM 41.1069 -96.7322 87° East 222 255 8,700 -720 Descending Minneapolis Center
09:23PM 41.1189 -96.6672 76° East 227 261 7,800 -1,020 Descending Minneapolis Center
09:23PM 41.1117 -96.6322 105° East 243 280 7,600 -780 Descending Minneapolis Center
09:24PM 41.1231 -96.5792 74° East 237 273 7,000 -660 Descending Minneapolis Center
09:24PM 41.1150 -96.5517 111° Southeast 236 272 7,000  Level Minneapolis Center
09:25PM 41.1278 -96.4958 73° East 230 265 7,000 60 Level Minneapolis Center
09:25PM 41.1228 -96.4706 105° East 216 249 7,100 60 Climbing Minneapolis Center
09:26PM 41.1347 -96.4200 73° East 215 247 7,100  Level Minneapolis Center
09:26PM 41.1308 -96.3978 103° East 208 239 7,100 -540 Level Minneapolis Center
09:27PM 41.1461 -96.3269 74° East 213 245 6,600 -600 Descending Minneapolis Center
09:27PM 41.1425 -96.3192 122° Southeast 220 253 6,500 -540 Descending Minneapolis Center
09:28PM 41.1617 -96.2492 70° East 216 249 6,100 -480 Descending Minneapolis Center
09:28PM 41.1619 -96.2283 89° East 218 251 6,000 -660 Descending Minneapolis Center
09:29PM 41.1819 -96.1458 72° East 220 253 5,300 -660 Descending Minneapolis Center
09:30PM 41.1917 -96.0911 77° East 222 255 4,800 -1,020 Descending Minneapolis Center
09:30PM 41.1911 -96.0617 91° East 232 267 4,300 -720 Descending Minneapolis Center
09:31PM 41.1967 -96.0075 82° East 228 262 4,100 -420 Descending Minneapolis Center
09:31PM 41.1897 -95.9789 108° East 221 254 3,900 -120 Descending Minneapolis Center
09:32PM 41.1856 -95.9144 95° East 219 252 4,000 120 Climbing Minneapolis Center
09:32PM 41.1842 -95.8908 94° East 206 237 4,100 -300 Climbing Minneapolis Center
09:33PM 41.1792 -95.8411 98° East 211 243 3,700 -780 Descending Minneapolis Center
09:33PM 41.1822 -95.8300 70° East 187 215 3,400 -840 Descending Minneapolis Center
09:34PM 41.2111 -95.8136 23° Northeast 182 209 2,900 -840 Descending Minneapolis Center
09:34PM 41.2211 -95.8200 334° Northwest 134 154 2,600 -660 Descending Minneapolis Center
09:35PM 41.2481 -95.8472 323° Northwest 105 121 2,100 -540 Descending Minneapolis Center
09:36PM 41.2650 -95.8597 331° Northwest 126 145 1,700 -540 Descending Minneapolis Center
09:36PM 41.2725 -95.8694 316° Northwest 101 116 1,600 -540 Descending Minneapolis Center
09:37PM 41.2889 -95.8828 329° Northwest 113 130 1,200 -480 Descending Minneapolis Center
09:39PM 41.3000 -95.8833 323° Northwest  Level FlightAware Approximate